sensor_id;sensor_type;location;lat;lon;timestamp;P1;durP1;ratioP1;P2;durP2;ratioP2
45848;SDS011;31567;54.600;9.842;2024-01-16T00:00:49;8.27;;;3.63;;
45848;SDS011;31567;54.600;9.842;2024-01-16T00:04:29;5.75;;;4.10;;
45848;SDS011;31567;54.600;9.842;2024-01-16T00:08:10;8.85;;;4.88;;
45848;SDS011;31567;54.600;9.842;2024-01-16T00:11:49;8.35;;;5.07;;
45848;SDS011;31567;54.600;9.842;2024-01-16T00:15:29;7.38;;;4.47;;
45848;SDS011;31567;54.600;9.842;2024-01-16T00:19:09;10.75;;;5.10;;
45848;SDS011;31567;54.600;9.842;2024-01-16T00:22:49;8.15;;;4.82;;
45848;SDS011;31567;54.600;9.842;2024-01-16T00:26:29;6.60;;;4.32;;
45848;SDS011;31567;54.600;9.842;2024-01-16T00:30:08;8.18;;;4.72;;
45848;SDS011;31567;54.600;9.842;2024-01-16T00:33:48;6.25;;;4.25;;
45848;SDS011;31567;54.600;9.842;2024-01-16T00:37:28;6.15;;;3.83;;
45848;SDS011;31567;54.600;9.842;2024-01-16T00:41:07;5.25;;;3.83;;
45848;SDS011;31567;54.600;9.842;2024-01-16T00:44:47;7.07;;;3.53;;
45848;SDS011;31567;54.600;9.842;2024-01-16T00:48:27;5.32;;;3.35;;
45848;SDS011;31567;54.600;9.842;2024-01-16T00:52:06;6.07;;;4.38;;
45848;SDS011;31567;54.600;9.842;2024-01-16T00:55:46;6.72;;;3.80;;
45848;SDS011;31567;54.600;9.842;2024-01-16T00:59:26;6.45;;;3.85;;
45848;SDS011;31567;54.600;9.842;2024-01-16T01:03:05;4.65;;;3.50;;
45848;SDS011;31567;54.600;9.842;2024-01-16T01:06:45;4.30;;;3.78;;
45848;SDS011;31567;54.600;9.842;2024-01-16T01:10:24;6.53;;;3.90;;
45848;SDS011;31567;54.600;9.842;2024-01-16T01:14:04;7.32;;;4.00;;
45848;SDS011;31567;54.600;9.842;2024-01-16T01:17:43;7.88;;;4.30;;
45848;SDS011;31567;54.600;9.842;2024-01-16T01:21:23;7.03;;;4.30;;
45848;SDS011;31567;54.600;9.842;2024-01-16T01:25:03;5.82;;;3.90;;
45848;SDS011;31567;54.600;9.842;2024-01-16T01:28:43;6.68;;;4.70;;
45848;SDS011;31567;54.600;9.842;2024-01-16T01:32:23;6.93;;;4.50;;
45848;SDS011;31567;54.600;9.842;2024-01-16T01:36:03;7.45;;;4.95;;
45848;SDS011;31567;54.600;9.842;2024-01-16T01:39:42;9.10;;;4.70;;
45848;SDS011;31567;54.600;9.842;2024-01-16T01:43:23;8.77;;;5.13;;
45848;SDS011;31567;54.600;9.842;2024-01-16T01:47:03;5.95;;;4.50;;
45848;SDS011;31567;54.600;9.842;2024-01-16T01:50:43;8.75;;;5.00;;
45848;SDS011;31567;54.600;9.842;2024-01-16T01:54:23;10.20;;;4.90;;
45848;SDS011;31567;54.600;9.842;2024-01-16T01:58:05;9.35;;;5.38;;
45848;SDS011;31567;54.600;9.842;2024-01-16T02:01:45;8.32;;;5.18;;
45848;SDS011;31567;54.600;9.842;2024-01-16T02:05:26;10.15;;;5.50;;
45848;SDS011;31567;54.600;9.842;2024-01-16T02:09:06;6.15;;;5.00;;
45848;SDS011;31567;54.600;9.842;2024-01-16T02:12:46;7.50;;;5.43;;
45848;SDS011;31567;54.600;9.842;2024-01-16T02:16:25;10.75;;;5.80;;
45848;SDS011;31567;54.600;9.842;2024-01-16T02:20:05;9.45;;;5.90;;
45848;SDS011;31567;54.600;9.842;2024-01-16T02:23:46;8.20;;;6.05;;
45848;SDS011;31567;54.600;9.842;2024-01-16T02:27:26;11.80;;;5.80;;
45848;SDS011;31567;54.600;9.842;2024-01-16T02:31:07;9.52;;;5.97;;
45848;SDS011;31567;54.600;9.842;2024-01-16T02:34:47;10.80;;;6.10;;
45848;SDS011;31567;54.600;9.842;2024-01-16T02:38:26;11.90;;;5.93;;
45848;SDS011;31567;54.600;9.842;2024-01-16T02:42:06;11.57;;;6.50;;
45848;SDS011;31567;54.600;9.842;2024-01-16T02:45:45;8.82;;;5.53;;
45848;SDS011;31567;54.600;9.842;2024-01-16T02:49:25;10.80;;;5.93;;
45848;SDS011;31567;54.600;9.842;2024-01-16T02:53:04;10.27;;;6.35;;
45848;SDS011;31567;54.600;9.842;2024-01-16T02:56:44;10.45;;;5.75;;
45848;SDS011;31567;54.600;9.842;2024-01-16T03:00:24;13.05;;;6.63;;
45848;SDS011;31567;54.600;9.842;2024-01-16T03:04:03;11.88;;;6.88;;
45848;SDS011;31567;54.600;9.842;2024-01-16T03:07:43;8.52;;;6.03;;
45848;SDS011;31567;54.600;9.842;2024-01-16T03:11:22;12.20;;;6.38;;
45848;SDS011;31567;54.600;9.842;2024-01-16T03:15:02;7.15;;;4.75;;
45848;SDS011;31567;54.600;9.842;2024-01-16T03:18:42;11.05;;;5.95;;
45848;SDS011;31567;54.600;9.842;2024-01-16T03:22:21;10.52;;;5.97;;
45848;SDS011;31567;54.600;9.842;2024-01-16T03:26:02;7.78;;;6.15;;
45848;SDS011;31567;54.600;9.842;2024-01-16T03:29:42;8.93;;;5.57;;
45848;SDS011;31567;54.600;9.842;2024-01-16T03:33:22;12.63;;;6.53;;
45848;SDS011;31567;54.600;9.842;2024-01-16T03:37:01;10.95;;;6.00;;
45848;SDS011;31567;54.600;9.842;2024-01-16T03:40:41;8.13;;;6.22;;
45848;SDS011;31567;54.600;9.842;2024-01-16T03:44:20;9.38;;;5.93;;
45848;SDS011;31567;54.600;9.842;2024-01-16T03:48:00;8.95;;;6.25;;
45848;SDS011;31567;54.600;9.842;2024-01-16T03:51:41;13.13;;;6.82;;
45848;SDS011;31567;54.600;9.842;2024-01-16T03:55:25;11.32;;;6.88;;
45848;SDS011;31567;54.600;9.842;2024-01-16T03:59:04;11.50;;;6.78;;
45848;SDS011;31567;54.600;9.842;2024-01-16T04:02:44;12.48;;;7.05;;
45848;SDS011;31567;54.600;9.842;2024-01-16T04:06:23;9.88;;;7.22;;
45848;SDS011;31567;54.600;9.842;2024-01-16T04:10:03;12.68;;;7.00;;
45848;SDS011;31567;54.600;9.842;2024-01-16T04:13:44;11.48;;;7.40;;
45848;SDS011;31567;54.600;9.842;2024-01-16T04:17:24;10.40;;;6.80;;
45848;SDS011;31567;54.600;9.842;2024-01-16T04:21:03;9.27;;;7.18;;
45848;SDS011;31567;54.600;9.842;2024-01-16T04:24:43;13.35;;;8.40;;
45848;SDS011;31567;54.600;9.842;2024-01-16T04:28:23;10.02;;;7.10;;
45848;SDS011;31567;54.600;9.842;2024-01-16T04:32:03;10.43;;;7.80;;
45848;SDS011;31567;54.600;9.842;2024-01-16T04:35:43;11.40;;;7.18;;
45848;SDS011;31567;54.600;9.842;2024-01-16T04:39:23;10.93;;;7.40;;
45848;SDS011;31567;54.600;9.842;2024-01-16T04:43:02;10.15;;;7.63;;
45848;SDS011;31567;54.600;9.842;2024-01-16T04:46:42;9.73;;;7.28;;
45848;SDS011;31567;54.600;9.842;2024-01-16T04:50:21;13.70;;;7.38;;
45848;SDS011;31567;54.600;9.842;2024-01-16T04:54:01;10.68;;;8.02;;
45848;SDS011;31567;54.600;9.842;2024-01-16T04:57:41;13.38;;;7.95;;
45848;SDS011;31567;54.600;9.842;2024-01-16T05:01:21;12.70;;;9.00;;
45848;SDS011;31567;54.600;9.842;2024-01-16T05:05:00;17.35;;;9.48;;
45848;SDS011;31567;54.600;9.842;2024-01-16T05:08:40;15.07;;;10.07;;
45848;SDS011;31567;54.600;9.842;2024-01-16T05:12:20;16.15;;;9.82;;
45848;SDS011;31567;54.600;9.842;2024-01-16T05:16:01;16.33;;;10.27;;
45848;SDS011;31567;54.600;9.842;2024-01-16T05:19:41;16.08;;;10.95;;
45848;SDS011;31567;54.600;9.842;2024-01-16T05:23:20;19.38;;;11.80;;
45848;SDS011;31567;54.600;9.842;2024-01-16T05:27:00;17.75;;;11.48;;
45848;SDS011;31567;54.600;9.842;2024-01-16T05:30:39;20.80;;;13.13;;
45848;SDS011;31567;54.600;9.842;2024-01-16T05:34:19;20.27;;;13.00;;
45848;SDS011;31567;54.600;9.842;2024-01-16T05:37:58;19.05;;;12.30;;
45848;SDS011;31567;54.600;9.842;2024-01-16T05:41:38;17.00;;;12.00;;
45848;SDS011;31567;54.600;9.842;2024-01-16T05:45:17;17.73;;;12.20;;
45848;SDS011;31567;54.600;9.842;2024-01-16T05:48:57;17.90;;;11.88;;
45848;SDS011;31567;54.600;9.842;2024-01-16T05:52:37;16.17;;;11.40;;
45848;SDS011;31567;54.600;9.842;2024-01-16T05:56:16;18.98;;;12.43;;
45848;SDS011;31567;54.600;9.842;2024-01-16T05:59:56;16.95;;;10.40;;
45848;SDS011;31567;54.600;9.842;2024-01-16T06:03:35;17.98;;;10.85;;
45848;SDS011;31567;54.600;9.842;2024-01-16T06:07:15;17.60;;;11.07;;
45848;SDS011;31567;54.600;9.842;2024-01-16T06:10:54;15.30;;;10.70;;
45848;SDS011;31567;54.600;9.842;2024-01-16T06:14:34;15.77;;;10.88;;
45848;SDS011;31567;54.600;9.842;2024-01-16T06:18:13;15.65;;;10.48;;
45848;SDS011;31567;54.600;9.842;2024-01-16T06:21:53;17.20;;;11.38;;
45848;SDS011;31567;54.600;9.842;2024-01-16T06:25:33;16.80;;;10.68;;
45848;SDS011;31567;54.600;9.842;2024-01-16T06:29:12;19.60;;;11.52;;
45848;SDS011;31567;54.600;9.842;2024-01-16T06:32:52;17.15;;;11.43;;
45848;SDS011;31567;54.600;9.842;2024-01-16T06:36:31;19.13;;;11.40;;
45848;SDS011;31567;54.600;9.842;2024-01-16T06:40:12;16.83;;;10.82;;
45848;SDS011;31567;54.600;9.842;2024-01-16T06:43:51;19.00;;;11.27;;
45848;SDS011;31567;54.600;9.842;2024-01-16T06:47:31;16.48;;;10.88;;
45848;SDS011;31567;54.600;9.842;2024-01-16T06:51:11;17.48;;;11.02;;
45848;SDS011;31567;54.600;9.842;2024-01-16T06:54:52;18.30;;;10.77;;
45848;SDS011;31567;54.600;9.842;2024-01-16T06:58:32;19.83;;;11.40;;
45848;SDS011;31567;54.600;9.842;2024-01-16T07:02:12;19.92;;;12.15;;
45848;SDS011;31567;54.600;9.842;2024-01-16T07:05:51;17.27;;;10.95;;
45848;SDS011;31567;54.600;9.842;2024-01-16T07:09:31;21.73;;;11.18;;
45848;SDS011;31567;54.600;9.842;2024-01-16T07:13:10;19.05;;;11.73;;
45848;SDS011;31567;54.600;9.842;2024-01-16T07:16:51;19.23;;;11.57;;
45848;SDS011;31567;54.600;9.842;2024-01-16T07:20:30;18.42;;;11.23;;
45848;SDS011;31567;54.600;9.842;2024-01-16T07:24:10;17.25;;;11.43;;
45848;SDS011;31567;54.600;9.842;2024-01-16T07:27:49;22.25;;;13.77;;
45848;SDS011;31567;54.600;9.842;2024-01-16T07:31:29;20.20;;;11.82;;
45848;SDS011;31567;54.600;9.842;2024-01-16T07:35:09;20.40;;;12.10;;
45848;SDS011;31567;54.600;9.842;2024-01-16T07:38:48;20.73;;;12.23;;
45848;SDS011;31567;54.600;9.842;2024-01-16T07:42:28;22.25;;;13.15;;
45848;SDS011;31567;54.600;9.842;2024-01-16T07:46:13;18.52;;;12.32;;
45848;SDS011;31567;54.600;9.842;2024-01-16T07:49:52;19.58;;;12.82;;
45848;SDS011;31567;54.600;9.842;2024-01-16T07:53:32;17.73;;;12.43;;
45848;SDS011;31567;54.600;9.842;2024-01-16T07:57:11;23.52;;;13.45;;
45848;SDS011;31567;54.600;9.842;2024-01-16T08:00:51;22.02;;;13.68;;
45848;SDS011;31567;54.600;9.842;2024-01-16T08:04:30;19.92;;;11.35;;
45848;SDS011;31567;54.600;9.842;2024-01-16T08:08:10;20.23;;;12.63;;
45848;SDS011;31567;54.600;9.842;2024-01-16T08:11:49;20.80;;;11.98;;
45848;SDS011;31567;54.600;9.842;2024-01-16T08:15:29;19.33;;;12.52;;
45848;SDS011;31567;54.600;9.842;2024-01-16T08:19:09;18.38;;;11.48;;
45848;SDS011;31567;54.600;9.842;2024-01-16T08:22:48;19.13;;;11.10;;
45848;SDS011;31567;54.600;9.842;2024-01-16T08:26:29;19.48;;;11.77;;
45848;SDS011;31567;54.600;9.842;2024-01-16T08:30:09;19.20;;;12.10;;
45848;SDS011;31567;54.600;9.842;2024-01-16T08:33:50;25.50;;;13.02;;
45848;SDS011;31567;54.600;9.842;2024-01-16T08:37:29;21.17;;;12.15;;
45848;SDS011;31567;54.600;9.842;2024-01-16T08:41:09;20.50;;;12.63;;
45848;SDS011;31567;54.600;9.842;2024-01-16T08:44:48;20.85;;;12.02;;
45848;SDS011;31567;54.600;9.842;2024-01-16T08:48:28;20.77;;;12.02;;
45848;SDS011;31567;54.600;9.842;2024-01-16T08:52:08;21.45;;;12.63;;
45848;SDS011;31567;54.600;9.842;2024-01-16T08:55:47;22.55;;;13.02;;
45848;SDS011;31567;54.600;9.842;2024-01-16T08:59:27;20.88;;;12.10;;
45848;SDS011;31567;54.600;9.842;2024-01-16T09:03:07;23.98;;;12.85;;
45848;SDS011;31567;54.600;9.842;2024-01-16T09:06:46;22.60;;;12.40;;
45848;SDS011;31567;54.600;9.842;2024-01-16T09:10:26;19.92;;;13.25;;
45848;SDS011;31567;54.600;9.842;2024-01-16T09:14:05;22.13;;;12.85;;
45848;SDS011;31567;54.600;9.842;2024-01-16T09:17:45;22.90;;;13.55;;
45848;SDS011;31567;54.600;9.842;2024-01-16T09:21:25;24.30;;;13.30;;
45848;SDS011;31567;54.600;9.842;2024-01-16T09:25:05;18.30;;;11.45;;
45848;SDS011;31567;54.600;9.842;2024-01-16T09:28:45;19.30;;;13.15;;
45848;SDS011;31567;54.600;9.842;2024-01-16T09:32:24;23.55;;;13.45;;
45848;SDS011;31567;54.600;9.842;2024-01-16T09:36:04;21.90;;;13.18;;
45848;SDS011;31567;54.600;9.842;2024-01-16T09:39:44;23.42;;;12.50;;
45848;SDS011;31567;54.600;9.842;2024-01-16T09:43:23;21.30;;;12.10;;
45848;SDS011;31567;54.600;9.842;2024-01-16T09:47:08;19.55;;;12.68;;
45848;SDS011;31567;54.600;9.842;2024-01-16T09:50:50;17.60;;;11.82;;
45848;SDS011;31567;54.600;9.842;2024-01-16T09:54:29;19.05;;;11.93;;
45848;SDS011;31567;54.600;9.842;2024-01-16T09:58:09;20.05;;;11.93;;
45848;SDS011;31567;54.600;9.842;2024-01-16T10:01:52;18.30;;;11.43;;
45848;SDS011;31567;54.600;9.842;2024-01-16T10:05:34;19.50;;;12.88;;
45848;SDS011;31567;54.600;9.842;2024-01-16T10:09:15;21.08;;;12.60;;
45848;SDS011;31567;54.600;9.842;2024-01-16T10:12:55;19.13;;;12.82;;
45848;SDS011;31567;54.600;9.842;2024-01-16T10:20:34;16.80;;;12.18;;
45848;SDS011;31567;54.600;9.842;2024-01-16T10:24:14;18.35;;;12.43;;
45848;SDS011;31567;54.600;9.842;2024-01-16T10:28:03;21.05;;;12.48;;
45848;SDS011;31567;54.600;9.842;2024-01-16T10:31:44;21.85;;;12.02;;
45848;SDS011;31567;54.600;9.842;2024-01-16T10:35:23;22.15;;;13.25;;
45848;SDS011;31567;54.600;9.842;2024-01-16T10:39:03;21.92;;;14.05;;
45848;SDS011;31567;54.600;9.842;2024-01-16T10:42:44;23.95;;;13.75;;
45848;SDS011;31567;54.600;9.842;2024-01-16T10:46:25;20.92;;;12.52;;
45848;SDS011;31567;54.600;9.842;2024-01-16T10:50:05;19.20;;;12.63;;
45848;SDS011;31567;54.600;9.842;2024-01-16T10:53:46;19.08;;;11.80;;
45848;SDS011;31567;54.600;9.842;2024-01-16T10:57:27;18.10;;;12.45;;
45848;SDS011;31567;54.600;9.842;2024-01-16T11:01:13;21.98;;;12.75;;
45848;SDS011;31567;54.600;9.842;2024-01-16T11:04:54;18.50;;;11.80;;
45848;SDS011;31567;54.600;9.842;2024-01-16T11:08:36;18.33;;;11.05;;
45848;SDS011;31567;54.600;9.842;2024-01-16T11:12:16;15.02;;;10.48;;
45848;SDS011;31567;54.600;9.842;2024-01-16T11:15:58;14.63;;;10.48;;
45848;SDS011;31567;54.600;9.842;2024-01-16T11:19:38;13.48;;;9.35;;
45848;SDS011;31567;54.600;9.842;2024-01-16T11:23:18;16.92;;;10.70;;
45848;SDS011;31567;54.600;9.842;2024-01-16T11:26:57;13.27;;;9.07;;
45848;SDS011;31567;54.600;9.842;2024-01-16T11:30:37;11.88;;;8.95;;
45848;SDS011;31567;54.600;9.842;2024-01-16T11:34:37;14.55;;;7.88;;
45848;SDS011;31567;54.600;9.842;2024-01-16T11:38:19;11.73;;;8.18;;
45848;SDS011;31567;54.600;9.842;2024-01-16T11:42:00;12.15;;;6.78;;
45848;SDS011;31567;54.600;9.842;2024-01-16T11:49:22;10.00;;;6.07;;
45848;SDS011;31567;54.600;9.842;2024-01-16T11:53:02;9.02;;;6.35;;
45848;SDS011;31567;54.600;9.842;2024-01-16T11:57:05;9.65;;;5.15;;
45848;SDS011;31567;54.600;9.842;2024-01-16T12:01:04;8.18;;;4.95;;
45848;SDS011;31567;54.600;9.842;2024-01-16T12:04:51;7.20;;;4.55;;
45848;SDS011;31567;54.600;9.842;2024-01-16T12:08:42;6.65;;;4.28;;
45848;SDS011;31567;54.600;9.842;2024-01-16T12:12:22;9.00;;;5.00;;
45848;SDS011;31567;54.600;9.842;2024-01-16T12:16:02;5.88;;;4.20;;
45848;SDS011;31567;54.600;9.842;2024-01-16T12:19:45;5.30;;;4.13;;
45848;SDS011;31567;54.600;9.842;2024-01-16T12:23:25;6.15;;;3.80;;
45848;SDS011;31567;54.600;9.842;2024-01-16T12:27:05;5.03;;;3.92;;
45848;SDS011;31567;54.600;9.842;2024-01-16T12:30:48;8.07;;;4.38;;
45848;SDS011;31567;54.600;9.842;2024-01-16T12:34:29;7.18;;;4.45;;
45848;SDS011;31567;54.600;9.842;2024-01-16T12:38:10;5.47;;;3.83;;
45848;SDS011;31567;54.600;9.842;2024-01-16T12:41:50;8.35;;;3.80;;
45848;SDS011;31567;54.600;9.842;2024-01-16T12:45:31;4.85;;;3.10;;
45848;SDS011;31567;54.600;9.842;2024-01-16T12:49:11;5.60;;;3.60;;
45848;SDS011;31567;54.600;9.842;2024-01-16T12:52:53;6.68;;;4.10;;
45848;SDS011;31567;54.600;9.842;2024-01-16T12:56:46;7.40;;;4.10;;
45848;SDS011;31567;54.600;9.842;2024-01-16T13:00:26;9.75;;;4.20;;
45848;SDS011;31567;54.600;9.842;2024-01-16T13:04:06;7.60;;;4.05;;
45848;SDS011;31567;54.600;9.842;2024-01-16T13:07:46;7.30;;;4.13;;
45848;SDS011;31567;54.600;9.842;2024-01-16T13:11:49;6.97;;;3.90;;
45848;SDS011;31567;54.600;9.842;2024-01-16T13:15:30;7.53;;;4.40;;
45848;SDS011;31567;54.600;9.842;2024-01-16T13:19:10;7.10;;;3.75;;
45848;SDS011;31567;54.600;9.842;2024-01-16T13:22:50;7.20;;;4.28;;
45848;SDS011;31567;54.600;9.842;2024-01-16T13:26:29;9.55;;;4.85;;
45848;SDS011;31567;54.600;9.842;2024-01-16T13:30:09;7.68;;;4.50;;
45848;SDS011;31567;54.600;9.842;2024-01-16T13:33:49;8.95;;;4.95;;
45848;SDS011;31567;54.600;9.842;2024-01-16T13:37:29;9.18;;;4.93;;
45848;SDS011;31567;54.600;9.842;2024-01-16T13:41:08;8.38;;;5.38;;
45848;SDS011;31567;54.600;9.842;2024-01-16T13:44:48;7.47;;;4.68;;
45848;SDS011;31567;54.600;9.842;2024-01-16T13:48:27;7.80;;;5.00;;
45848;SDS011;31567;54.600;9.842;2024-01-16T13:52:07;7.22;;;4.15;;
45848;SDS011;31567;54.600;9.842;2024-01-16T13:55:46;8.15;;;4.63;;
45848;SDS011;31567;54.600;9.842;2024-01-16T13:59:26;7.72;;;5.40;;
45848;SDS011;31567;54.600;9.842;2024-01-16T14:03:05;6.97;;;4.28;;
45848;SDS011;31567;54.600;9.842;2024-01-16T14:06:45;7.57;;;5.00;;
45848;SDS011;31567;54.600;9.842;2024-01-16T14:10:25;7.22;;;4.13;;
45848;SDS011;31567;54.600;9.842;2024-01-16T14:14:04;7.97;;;4.57;;
45848;SDS011;31567;54.600;9.842;2024-01-16T14:17:44;7.28;;;4.90;;
45848;SDS011;31567;54.600;9.842;2024-01-16T14:21:26;7.90;;;4.90;;
45848;SDS011;31567;54.600;9.842;2024-01-16T14:25:08;8.45;;;4.25;;
45848;SDS011;31567;54.600;9.842;2024-01-16T14:28:50;6.88;;;3.10;;
45848;SDS011;31567;54.600;9.842;2024-01-16T14:32:29;6.65;;;3.25;;
45848;SDS011;31567;54.600;9.842;2024-01-16T14:36:09;6.85;;;3.63;;
45848;SDS011;31567;54.600;9.842;2024-01-16T14:39:48;5.65;;;3.28;;
45848;SDS011;31567;54.600;9.842;2024-01-16T14:43:28;12.23;;;3.85;;
45848;SDS011;31567;54.600;9.842;2024-01-16T14:47:08;6.40;;;3.55;;
45848;SDS011;31567;54.600;9.842;2024-01-16T14:50:48;5.35;;;3.40;;
45848;SDS011;31567;54.600;9.842;2024-01-16T14:54:28;5.20;;;3.42;;
45848;SDS011;31567;54.600;9.842;2024-01-16T14:58:08;6.40;;;3.97;;
45848;SDS011;31567;54.600;9.842;2024-01-16T15:01:47;8.88;;;4.10;;
45848;SDS011;31567;54.600;9.842;2024-01-16T15:05:27;6.30;;;3.83;;
45848;SDS011;31567;54.600;9.842;2024-01-16T15:09:06;5.93;;;3.63;;
45848;SDS011;31567;54.600;9.842;2024-01-16T15:12:49;5.85;;;3.80;;
45848;SDS011;31567;54.600;9.842;2024-01-16T15:16:30;5.70;;;3.95;;
45848;SDS011;31567;54.600;9.842;2024-01-16T15:20:10;6.75;;;3.75;;
45848;SDS011;31567;54.600;9.842;2024-01-16T15:23:50;4.70;;;3.25;;
45848;SDS011;31567;54.600;9.842;2024-01-16T15:27:29;7.40;;;3.65;;
45848;SDS011;31567;54.600;9.842;2024-01-16T15:31:09;8.02;;;3.25;;
45848;SDS011;31567;54.600;9.842;2024-01-16T15:34:49;4.25;;;2.63;;
45848;SDS011;31567;54.600;9.842;2024-01-16T15:38:28;8.75;;;2.90;;
45848;SDS011;31567;54.600;9.842;2024-01-16T15:42:08;4.63;;;2.22;;
45848;SDS011;31567;54.600;9.842;2024-01-16T15:45:48;5.15;;;2.50;;
45848;SDS011;31567;54.600;9.842;2024-01-16T15:49:28;3.00;;;2.10;;
45848;SDS011;31567;54.600;9.842;2024-01-16T15:53:10;8.55;;;2.22;;
45848;SDS011;31567;54.600;9.842;2024-01-16T15:56:51;4.45;;;1.80;;
45848;SDS011;31567;54.600;9.842;2024-01-16T16:00:30;4.32;;;1.73;;
45848;SDS011;31567;54.600;9.842;2024-01-16T16:04:10;2.90;;;1.70;;
45848;SDS011;31567;54.600;9.842;2024-01-16T16:07:49;5.18;;;1.88;;
45848;SDS011;31567;54.600;9.842;2024-01-16T16:11:38;3.90;;;2.17;;
45848;SDS011;31567;54.600;9.842;2024-01-16T16:15:23;3.10;;;2.33;;
45848;SDS011;31567;54.600;9.842;2024-01-16T16:19:03;6.63;;;2.00;;
45848;SDS011;31567;54.600;9.842;2024-01-16T16:22:43;4.85;;;2.78;;
45848;SDS011;31567;54.600;9.842;2024-01-16T16:26:29;2.67;;;2.05;;
45848;SDS011;31567;54.600;9.842;2024-01-16T16:30:13;2.88;;;1.98;;
45848;SDS011;31567;54.600;9.842;2024-01-16T16:33:52;4.72;;;1.80;;
45848;SDS011;31567;54.600;9.842;2024-01-16T16:37:32;2.28;;;1.85;;
45848;SDS011;31567;54.600;9.842;2024-01-16T16:41:12;2.60;;;2.17;;
45848;SDS011;31567;54.600;9.842;2024-01-16T16:44:53;3.30;;;2.50;;
45848;SDS011;31567;54.600;9.842;2024-01-16T16:48:33;5.05;;;2.08;;
45848;SDS011;31567;54.600;9.842;2024-01-16T16:52:13;2.72;;;1.92;;
45848;SDS011;31567;54.600;9.842;2024-01-16T16:55:52;2.65;;;2.08;;
45848;SDS011;31567;54.600;9.842;2024-01-16T16:59:32;2.65;;;2.40;;
45848;SDS011;31567;54.600;9.842;2024-01-16T17:03:11;4.55;;;2.30;;
45848;SDS011;31567;54.600;9.842;2024-01-16T17:06:51;3.25;;;2.75;;
45848;SDS011;31567;54.600;9.842;2024-01-16T17:10:33;4.13;;;2.13;;
45848;SDS011;31567;54.600;9.842;2024-01-16T17:14:13;3.08;;;2.10;;
45848;SDS011;31567;54.600;9.842;2024-01-16T17:17:53;2.55;;;1.88;;
45848;SDS011;31567;54.600;9.842;2024-01-16T17:21:32;1.73;;;1.63;;
45848;SDS011;31567;54.600;9.842;2024-01-16T17:25:12;1.70;;;1.60;;
45848;SDS011;31567;54.600;9.842;2024-01-16T17:28:51;2.55;;;1.90;;
45848;SDS011;31567;54.600;9.842;2024-01-16T17:32:31;1.25;;;1.15;;
45848;SDS011;31567;54.600;9.842;2024-01-16T17:36:10;1.95;;;1.58;;
45848;SDS011;31567;54.600;9.842;2024-01-16T17:39:51;1.88;;;1.77;;
45848;SDS011;31567;54.600;9.842;2024-01-16T17:43:31;3.28;;;2.03;;
45848;SDS011;31567;54.600;9.842;2024-01-16T17:47:10;3.13;;;2.85;;
45848;SDS011;31567;54.600;9.842;2024-01-16T17:50:50;5.45;;;4.95;;
45848;SDS011;31567;54.600;9.842;2024-01-16T17:54:30;8.43;;;6.75;;
45848;SDS011;31567;54.600;9.842;2024-01-16T17:58:10;6.97;;;5.75;;
45848;SDS011;31567;54.600;9.842;2024-01-16T18:01:50;6.40;;;5.07;;
45848;SDS011;31567;54.600;9.842;2024-01-16T18:05:29;4.78;;;3.95;;
45848;SDS011;31567;54.600;9.842;2024-01-16T18:09:09;5.07;;;4.20;;
45848;SDS011;31567;54.600;9.842;2024-01-16T18:12:49;4.60;;;4.20;;
45848;SDS011;31567;54.600;9.842;2024-01-16T18:16:28;4.90;;;4.50;;
45848;SDS011;31567;54.600;9.842;2024-01-16T18:20:08;4.35;;;4.00;;
45848;SDS011;31567;54.600;9.842;2024-01-16T18:23:50;4.68;;;4.28;;
45848;SDS011;31567;54.600;9.842;2024-01-16T18:27:30;6.60;;;5.68;;
45848;SDS011;31567;54.600;9.842;2024-01-16T18:31:11;4.97;;;3.90;;
45848;SDS011;31567;54.600;9.842;2024-01-16T18:34:51;7.10;;;4.22;;
45848;SDS011;31567;54.600;9.842;2024-01-16T18:38:31;4.28;;;3.85;;
45848;SDS011;31567;54.600;9.842;2024-01-16T18:42:10;3.15;;;2.83;;
45848;SDS011;31567;54.600;9.842;2024-01-16T18:45:50;3.90;;;3.17;;
45848;SDS011;31567;54.600;9.842;2024-01-16T18:49:30;3.65;;;2.70;;
45848;SDS011;31567;54.600;9.842;2024-01-16T18:53:10;3.85;;;2.63;;
45848;SDS011;31567;54.600;9.842;2024-01-16T18:56:52;3.15;;;2.83;;
45848;SDS011;31567;54.600;9.842;2024-01-16T19:00:31;2.67;;;2.30;;
45848;SDS011;31567;54.600;9.842;2024-01-16T19:04:11;2.25;;;1.85;;
45848;SDS011;31567;54.600;9.842;2024-01-16T19:07:51;3.47;;;2.17;;
45848;SDS011;31567;54.600;9.842;2024-01-16T19:11:31;1.63;;;1.52;;
45848;SDS011;31567;54.600;9.842;2024-01-16T19:15:12;1.77;;;1.60;;
45848;SDS011;31567;54.600;9.842;2024-01-16T19:18:56;1.10;;;0.95;;
45848;SDS011;31567;54.600;9.842;2024-01-16T19:22:36;1.98;;;1.17;;
45848;SDS011;31567;54.600;9.842;2024-01-16T19:26:19;1.30;;;1.20;;
45848;SDS011;31567;54.600;9.842;2024-01-16T19:29:59;1.27;;;1.17;;
45848;SDS011;31567;54.600;9.842;2024-01-16T19:33:42;1.20;;;0.93;;
45848;SDS011;31567;54.600;9.842;2024-01-16T19:37:22;1.48;;;1.00;;
45848;SDS011;31567;54.600;9.842;2024-01-16T19:41:02;1.63;;;1.00;;
45848;SDS011;31567;54.600;9.842;2024-01-16T19:44:42;3.50;;;0.80;;
45848;SDS011;31567;54.600;9.842;2024-01-16T19:48:25;1.35;;;1.20;;
45848;SDS011;31567;54.600;9.842;2024-01-16T19:52:04;2.55;;;1.30;;
45848;SDS011;31567;54.600;9.842;2024-01-16T19:55:44;3.72;;;1.40;;
45848;SDS011;31567;54.600;9.842;2024-01-16T19:59:25;3.92;;;2.10;;
45848;SDS011;31567;54.600;9.842;2024-01-16T20:03:06;4.18;;;2.90;;
45848;SDS011;31567;54.600;9.842;2024-01-16T20:06:46;5.75;;;3.55;;
45848;SDS011;31567;54.600;9.842;2024-01-16T20:10:25;7.35;;;5.20;;
45848;SDS011;31567;54.600;9.842;2024-01-16T20:14:05;8.13;;;6.07;;
45848;SDS011;31567;54.600;9.842;2024-01-16T20:17:49;9.63;;;7.68;;
45848;SDS011;31567;54.600;9.842;2024-01-16T20:21:31;17.65;;;8.48;;
45848;SDS011;31567;54.600;9.842;2024-01-16T20:25:12;14.88;;;9.55;;
45848;SDS011;31567;54.600;9.842;2024-01-16T20:28:51;12.10;;;9.32;;
45848;SDS011;31567;54.600;9.842;2024-01-16T20:32:31;16.23;;;10.93;;
45848;SDS011;31567;54.600;9.842;2024-01-16T20:36:10;14.80;;;9.07;;
45848;SDS011;31567;54.600;9.842;2024-01-16T20:39:51;19.50;;;10.00;;
45848;SDS011;31567;54.600;9.842;2024-01-16T20:43:30;16.42;;;10.35;;
45848;SDS011;31567;54.600;9.842;2024-01-16T20:47:10;13.35;;;9.75;;
45848;SDS011;31567;54.600;9.842;2024-01-16T20:50:49;17.65;;;11.13;;
45848;SDS011;31567;54.600;9.842;2024-01-16T20:54:29;12.00;;;8.95;;
45848;SDS011;31567;54.600;9.842;2024-01-16T20:58:08;16.05;;;9.82;;
45848;SDS011;31567;54.600;9.842;2024-01-16T21:01:48;10.85;;;8.38;;
45848;SDS011;31567;54.600;9.842;2024-01-16T21:05:29;14.07;;;10.02;;
45848;SDS011;31567;54.600;9.842;2024-01-16T21:09:09;14.68;;;10.30;;
45848;SDS011;31567;54.600;9.842;2024-01-16T21:12:54;15.13;;;10.85;;
45848;SDS011;31567;54.600;9.842;2024-01-16T21:16:34;16.88;;;12.68;;
45848;SDS011;31567;54.600;9.842;2024-01-16T21:20:15;18.38;;;13.38;;
45848;SDS011;31567;54.600;9.842;2024-01-16T21:23:55;14.27;;;9.93;;
45848;SDS011;31567;54.600;9.842;2024-01-16T21:27:34;19.73;;;11.82;;
45848;SDS011;31567;54.600;9.842;2024-01-16T21:31:16;14.90;;;10.55;;
45848;SDS011;31567;54.600;9.842;2024-01-16T21:34:56;14.98;;;9.60;;
45848;SDS011;31567;54.600;9.842;2024-01-16T21:38:35;13.00;;;9.30;;
45848;SDS011;31567;54.600;9.842;2024-01-16T21:42:15;11.95;;;9.65;;
45848;SDS011;31567;54.600;9.842;2024-01-16T21:45:55;13.30;;;9.52;;
45848;SDS011;31567;54.600;9.842;2024-01-16T21:49:34;15.70;;;10.27;;
45848;SDS011;31567;54.600;9.842;2024-01-16T21:53:14;17.17;;;11.10;;
45848;SDS011;31567;54.600;9.842;2024-01-16T21:56:54;13.52;;;10.20;;
45848;SDS011;31567;54.600;9.842;2024-01-16T22:00:33;13.27;;;9.88;;